createdAt,value
2019-03-20T00:00:40.491Z,5.90
2019-03-20T00:03:09.971Z,5.90
2019-03-20T00:05:39.415Z,6.00
2019-03-20T00:08:08.827Z,6.00
2019-03-20T00:10:38.214Z,6.10
2019-03-20T00:13:07.794Z,6.10
2019-03-20T00:15:37.232Z,6.20
2019-03-20T00:18:06.753Z,6.20
2019-03-20T00:20:40.171Z,6.30
2019-03-20T00:23:10.607Z,6.30
2019-03-20T00:25:41.044Z,6.30
2019-03-20T00:28:10.392Z,6.40
2019-03-20T00:30:39.917Z,6.50
2019-03-20T00:33:09.523Z,6.40
2019-03-20T00:35:38.948Z,6.50
2019-03-20T00:38:08.385Z,6.50
2019-03-20T00:40:39.330Z,6.50
2019-03-20T00:43:08.750Z,6.50
2019-03-20T00:45:38.203Z,6.50
2019-03-20T00:48:07.624Z,6.50
2019-03-20T00:50:37.136Z,6.60
2019-03-20T00:53:06.623Z,6.60
2019-03-20T00:55:36.074Z,6.60
2019-03-20T00:58:06.156Z,6.60
2019-03-20T01:00:36.999Z,6.60
2019-03-20T01:03:06.453Z,6.60
2019-03-20T01:05:35.802Z,6.60
2019-03-20T01:08:05.602Z,6.70
2019-03-20T01:10:36.140Z,6.70
2019-03-20T01:13:05.981Z,6.70
2019-03-20T01:15:35.485Z,6.70
2019-03-20T01:18:05.370Z,6.70
2019-03-20T01:20:34.733Z,6.70
2019-03-20T01:23:04.156Z,6.70
2019-03-20T01:25:35.169Z,6.70
2019-03-20T01:28:05.476Z,6.70
2019-03-20T01:30:36.296Z,6.70
2019-03-20T01:33:15.837Z,6.70
2019-03-20T01:35:46.810Z,6.70
2019-03-20T01:38:16.163Z,6.70
2019-03-20T01:40:45.545Z,6.70
2019-03-20T01:43:14.906Z,6.70
2019-03-20T01:45:44.271Z,6.70
2019-03-20T01:48:13.630Z,6.70
2019-03-20T01:50:42.963Z,6.80
2019-03-20T01:53:12.381Z,6.80
2019-03-20T01:55:41.770Z,6.80
2019-03-20T01:58:11.122Z,6.70
2019-03-20T02:00:40.834Z,6.70
2019-03-20T02:03:10.308Z,6.70
2019-03-20T02:05:39.756Z,6.70
2019-03-20T02:08:09.099Z,6.70
2019-03-20T02:10:38.486Z,6.80
2019-03-20T02:13:07.905Z,6.80
2019-03-20T02:15:39.232Z,6.80
2019-03-20T02:18:09.318Z,6.80
2019-03-20T02:20:38.752Z,6.80
2019-03-20T02:23:08.125Z,6.80
2019-03-20T02:25:37.592Z,6.80
2019-03-20T02:28:07.011Z,6.80
2019-03-20T02:30:36.506Z,6.80
2019-03-20T02:33:06.084Z,6.80
2019-03-20T02:35:50.266Z,6.80
2019-03-20T02:38:07.636Z,6.80
2019-03-20T02:40:37.055Z,6.80
2019-03-20T02:43:06.555Z,6.80
2019-03-20T02:45:36.006Z,6.90
2019-03-20T02:48:05.769Z,6.90
2019-03-20T02:50:35.112Z,6.90
2019-03-20T02:53:04.598Z,6.80
2019-03-20T02:55:33.946Z,6.90
2019-03-20T02:58:03.493Z,6.80
2019-03-20T03:00:32.989Z,6.90
2019-03-20T03:03:02.424Z,6.90
2019-03-20T03:05:31.840Z,6.90
2019-03-20T03:08:01.210Z,6.90
2019-03-20T03:10:30.699Z,6.90
2019-03-20T03:13:00.135Z,6.90
2019-03-20T03:15:29.585Z,6.90
2019-03-20T03:17:58.997Z,6.90
2019-03-20T03:20:28.336Z,6.90
2019-03-20T03:22:57.718Z,6.90
2019-03-20T03:25:28.075Z,6.90
2019-03-20T03:27:57.842Z,6.90
2019-03-20T03:30:27.539Z,6.90
2019-03-20T03:32:56.958Z,7.00
2019-03-20T03:35:26.363Z,6.90
2019-03-20T03:37:55.823Z,6.90
2019-03-20T03:40:25.232Z,6.90
2019-03-20T03:42:54.676Z,6.90
2019-03-20T03:45:24.111Z,6.90
2019-03-20T03:47:53.501Z,6.90
2019-03-20T03:50:22.862Z,7.00
2019-03-20T03:52:52.225Z,7.00
2019-03-20T03:55:21.635Z,6.90
2019-03-20T03:57:51.140Z,7.00
2019-03-20T04:00:20.828Z,6.90
2019-03-20T04:02:50.253Z,6.90
2019-03-20T04:05:19.707Z,6.90
2019-03-20T04:07:49.150Z,6.90
2019-03-20T04:10:18.833Z,6.90
2019-03-20T04:12:49.366Z,6.90
2019-03-20T04:15:18.860Z,6.90
2019-03-20T04:17:48.206Z,6.90
2019-03-20T04:20:18.716Z,6.90
2019-03-20T04:22:48.135Z,6.80
2019-03-20T04:25:17.588Z,6.70
2019-03-20T04:27:47.083Z,6.70
2019-03-20T04:30:19.963Z,6.60
2019-03-20T04:32:49.400Z,6.50
2019-03-20T04:35:18.745Z,6.50
2019-03-20T04:37:48.083Z,6.40
2019-03-20T04:40:19.188Z,6.40
2019-03-20T04:42:48.528Z,6.40
2019-03-20T04:45:18.056Z,6.40
2019-03-20T04:47:47.548Z,6.30
2019-03-20T04:50:17.287Z,6.30
2019-03-20T04:52:46.842Z,6.30
2019-03-20T04:55:16.252Z,6.30
2019-03-20T04:57:46.161Z,6.40
2019-03-20T05:00:23.962Z,6.40
2019-03-20T05:02:53.331Z,6.30
2019-03-20T05:05:22.724Z,6.40
2019-03-20T05:07:52.127Z,6.40
2019-03-20T05:10:21.513Z,6.50
2019-03-20T05:12:50.855Z,6.50
2019-03-20T05:15:20.272Z,6.50
2019-03-20T05:17:49.683Z,6.50
2019-03-20T05:20:22.825Z,6.50
2019-03-20T05:22:52.179Z,6.50
2019-03-20T05:25:21.589Z,6.60
2019-03-20T05:27:51.025Z,6.60
2019-03-20T05:30:20.453Z,6.60
2019-03-20T05:32:49.895Z,6.70
2019-03-20T05:35:19.375Z,6.70
2019-03-20T05:37:48.759Z,6.70
2019-03-20T05:40:18.934Z,6.70
2019-03-20T05:42:48.333Z,6.80
2019-03-20T05:45:18.926Z,6.80
2019-03-20T05:47:48.303Z,6.80
2019-03-20T05:50:18.283Z,6.90
2019-03-20T05:52:47.714Z,6.90
2019-03-20T05:55:17.277Z,6.80
2019-03-20T05:57:46.615Z,6.90
2019-03-20T06:00:21.674Z,6.90
2019-03-20T06:02:51.025Z,6.90
2019-03-20T06:05:20.400Z,6.90
2019-03-20T06:07:49.913Z,6.90
2019-03-20T06:10:19.515Z,6.90
2019-03-20T06:12:48.997Z,6.90
2019-03-20T06:15:18.395Z,7.00
2019-03-20T06:17:47.791Z,7.00
2019-03-20T06:20:17.126Z,7.10
2019-03-20T06:22:46.569Z,7.10
2019-03-20T06:25:16.646Z,7.20
2019-03-20T06:27:46.133Z,7.30
2019-03-20T06:30:18.915Z,7.30
2019-03-20T06:32:48.623Z,7.40
2019-03-20T06:35:18.048Z,7.50
2019-03-20T06:37:47.496Z,7.50
2019-03-20T06:40:17.791Z,7.50
2019-03-20T06:42:48.809Z,7.60
2019-03-20T06:45:19.021Z,7.60
2019-03-20T06:47:48.418Z,7.60
2019-03-20T06:50:19.015Z,7.60
2019-03-20T06:52:48.438Z,7.60
2019-03-20T06:55:17.779Z,7.70
2019-03-20T06:57:47.348Z,7.70
2019-03-20T07:00:36.231Z,7.80
2019-03-20T07:03:20.768Z,7.80
2019-03-20T07:06:01.809Z,7.90
2019-03-20T07:08:34.298Z,8.00
2019-03-20T07:11:05.588Z,8.00
2019-03-20T07:13:35.265Z,8.10
2019-03-20T07:16:05.561Z,8.10
2019-03-20T07:18:36.070Z,8.20
2019-03-20T07:21:06.655Z,8.20
2019-03-20T07:23:36.048Z,8.30
2019-03-20T07:26:05.828Z,8.30
2019-03-20T07:28:35.197Z,8.40
2019-03-20T07:31:14.827Z,8.40
2019-03-20T07:33:35.809Z,8.50
2019-03-20T07:36:05.454Z,8.60
2019-03-20T07:38:34.819Z,8.60
2019-03-20T07:41:04.253Z,8.60
2019-03-20T07:43:34.675Z,8.60
2019-03-20T07:46:04.612Z,8.70
2019-03-20T07:48:34.189Z,8.80
2019-03-20T07:51:03.808Z,8.80
2019-03-20T07:53:33.237Z,8.90
2019-03-20T07:56:02.754Z,9.00
2019-03-20T07:58:32.180Z,9.10
2019-03-20T08:01:01.599Z,9.20
2019-03-20T08:03:30.969Z,9.20
2019-03-20T08:06:00.470Z,9.30
2019-03-20T08:08:29.859Z,9.30
2019-03-20T08:10:59.375Z,9.30
2019-03-20T08:13:28.806Z,9.40
2019-03-20T08:15:58.168Z,9.40
2019-03-20T08:18:27.511Z,9.60
2019-03-20T08:20:56.947Z,9.60
2019-03-20T08:23:26.302Z,9.70
2019-03-20T08:25:55.652Z,9.90
2019-03-20T08:28:26.114Z,9.90
2019-03-20T08:30:55.613Z,10.10
2019-03-20T08:33:25.044Z,10.40
2019-03-20T08:35:54.544Z,10.30
2019-03-20T08:38:24.073Z,10.30
2019-03-20T08:40:53.516Z,10.30
2019-03-20T08:43:23.057Z,10.30
2019-03-20T08:45:52.473Z,10.20
2019-03-20T08:48:21.944Z,10.10
2019-03-20T08:50:51.545Z,10.20
2019-03-20T08:53:21.063Z,10.10
2019-03-20T08:55:50.470Z,10.20
2019-03-20T08:58:19.898Z,10.10
2019-03-20T09:00:49.622Z,10.20
2019-03-20T09:03:19.267Z,10.30
2019-03-20T09:05:48.901Z,10.40
2019-03-20T09:08:28.509Z,10.50
2019-03-20T09:10:49.371Z,10.50
2019-03-20T09:13:18.820Z,10.60
2019-03-20T09:15:48.175Z,10.60
2019-03-20T09:18:19.285Z,10.70
2019-03-20T09:20:48.693Z,10.80
2019-03-20T09:23:18.177Z,10.80
2019-03-20T09:25:47.675Z,10.90
2019-03-20T09:28:17.152Z,11.00
2019-03-20T09:30:46.516Z,11.00
2019-03-20T09:33:17.361Z,11.30
2019-03-20T09:35:47.103Z,11.40
2019-03-20T09:38:17.441Z,11.60
2019-03-20T09:40:46.817Z,11.60
2019-03-20T09:43:16.235Z,11.60
2019-03-20T09:45:45.620Z,11.30
2019-03-20T09:48:15.018Z,11.20
2019-03-20T09:50:44.390Z,11.10
2019-03-20T09:53:15.401Z,11.10
2019-03-20T09:55:44.788Z,11.10
2019-03-20T09:58:14.227Z,11.40
2019-03-20T10:00:43.679Z,11.70
2019-03-20T10:03:13.121Z,11.70
2019-03-20T10:05:42.474Z,11.70
2019-03-20T10:08:11.852Z,11.70
2019-03-20T10:10:41.328Z,11.70
2019-03-20T10:13:10.752Z,11.80
2019-03-20T10:15:40.115Z,11.60
2019-03-20T10:18:09.499Z,11.60
2019-03-20T10:20:38.943Z,11.80
2019-03-20T10:23:08.320Z,11.70
2019-03-20T10:25:44.601Z,11.70
2019-03-20T10:28:08.860Z,11.60
2019-03-20T10:30:38.200Z,11.80
2019-03-20T10:33:07.599Z,12.10
2019-03-20T10:35:37.064Z,12.00
2019-03-20T10:38:06.446Z,12.20
2019-03-20T10:40:39.024Z,12.40
2019-03-20T10:43:08.392Z,12.40
2019-03-20T10:45:37.772Z,12.10
2019-03-20T10:48:07.146Z,12.10
2019-03-20T10:50:36.512Z,12.10
2019-03-20T10:53:05.928Z,12.30
2019-03-20T10:55:35.615Z,12.30
2019-03-20T10:58:05.247Z,12.30
2019-03-20T11:00:34.610Z,12.20
2019-03-20T11:03:04.176Z,12.40
2019-03-20T11:05:33.625Z,12.50
2019-03-20T11:08:03.111Z,12.40
2019-03-20T11:10:32.561Z,12.70
2019-03-20T11:13:02.000Z,12.70
2019-03-20T11:15:31.518Z,12.70
2019-03-20T11:18:00.951Z,12.70
2019-03-20T11:20:30.469Z,13.00
2019-03-20T11:22:59.831Z,13.30
2019-03-20T11:25:29.801Z,13.60
2019-03-20T11:28:00.870Z,13.40
2019-03-20T11:30:31.492Z,13.30
2019-03-20T11:33:00.973Z,13.60
2019-03-20T11:35:30.561Z,13.90
2019-03-20T11:37:59.986Z,13.50
2019-03-20T11:40:40.357Z,13.80
2019-03-20T11:43:09.802Z,13.90
2019-03-20T11:45:42.033Z,13.20
2019-03-20T11:48:11.400Z,12.80
2019-03-20T11:50:42.226Z,12.90
2019-03-20T11:53:11.780Z,12.80
2019-03-20T11:55:43.825Z,12.90
2019-03-20T11:58:13.430Z,12.60
2019-03-20T12:00:42.823Z,12.70
2019-03-20T12:03:12.415Z,12.60
2019-03-20T12:05:45.222Z,12.50
2019-03-20T12:08:16.284Z,12.50
2019-03-20T12:10:45.800Z,12.50
2019-03-20T12:13:16.233Z,12.60
2019-03-20T12:15:46.864Z,12.60
2019-03-20T12:18:16.343Z,12.70
2019-03-20T12:20:45.895Z,12.80
2019-03-20T12:23:15.260Z,12.90
2019-03-20T12:25:44.734Z,12.80
2019-03-20T12:28:14.123Z,12.70
2019-03-20T12:30:43.567Z,12.70
2019-03-20T12:33:13.159Z,12.80
2019-03-20T12:35:47.382Z,12.80
2019-03-20T12:38:16.834Z,12.60
2019-03-20T12:40:46.252Z,12.70
2019-03-20T12:43:15.663Z,12.80
2019-03-20T12:45:45.115Z,12.80
2019-03-20T12:48:16.702Z,13.00
2019-03-20T12:50:47.642Z,13.20
2019-03-20T12:53:20.111Z,13.10
2019-03-20T12:55:49.562Z,13.00
2019-03-20T12:58:18.963Z,13.10
2019-03-20T13:03:17.033Z,13.20
2019-03-20T13:05:46.512Z,13.20
2019-03-20T13:08:15.983Z,13.00
2019-03-20T13:10:45.440Z,13.00
2019-03-20T13:13:17.124Z,12.90
2019-03-20T13:15:46.956Z,13.20
2019-03-20T13:18:16.375Z,13.20
2019-03-20T13:20:45.738Z,12.90
2019-03-20T13:23:29.971Z,12.90
2019-03-20T13:26:00.886Z,12.80
2019-03-20T13:28:32.926Z,12.80
2019-03-20T13:31:05.674Z,12.70
2019-03-20T13:33:34.933Z,12.70
2019-03-20T13:36:06.144Z,12.90
2019-03-20T13:38:35.564Z,13.10
2019-03-20T13:41:06.244Z,13.30
2019-03-20T13:43:38.314Z,13.30
2019-03-20T13:46:07.731Z,13.50
2019-03-20T13:48:37.145Z,13.20
2019-03-20T13:51:06.688Z,13.40
2019-03-20T13:53:36.145Z,13.60
2019-03-20T13:56:05.578Z,13.20
2019-03-20T13:58:34.996Z,13.10
2019-03-20T14:01:05.302Z,13.00
2019-03-20T14:03:34.779Z,13.00
2019-03-20T14:06:04.229Z,12.90
2019-03-20T14:08:33.669Z,13.10
2019-03-20T14:11:03.121Z,13.10
2019-03-20T14:13:32.620Z,13.10
2019-03-20T14:16:01.989Z,13.00
2019-03-20T14:18:32.388Z,12.90
2019-03-20T14:21:01.749Z,13.00
2019-03-20T14:23:31.114Z,13.10
2019-03-20T14:26:00.781Z,13.10
2019-03-20T14:28:30.369Z,13.10
2019-03-20T14:30:59.792Z,13.10
2019-03-20T14:33:29.160Z,13.20
2019-03-20T14:35:58.521Z,13.20
2019-03-20T14:38:27.938Z,13.00
2019-03-20T14:40:57.306Z,12.90
2019-03-20T14:46:17.805Z,13.10
2019-03-20T14:49:36.662Z,13.10
2019-03-20T14:55:46.595Z,13.40
2019-03-20T14:58:29.562Z,13.50
2019-03-20T15:01:21.587Z,13.50
2019-03-20T15:17:22.572Z,13.80
2019-03-20T15:19:51.948Z,13.90
2019-03-20T15:22:21.300Z,13.90
2019-03-20T15:24:50.678Z,13.70
2019-03-20T15:27:21.125Z,13.70
2019-03-20T15:29:50.510Z,14.10
2019-03-20T15:32:19.927Z,13.70
2019-03-20T15:34:49.292Z,13.80
2019-03-20T15:37:18.667Z,14.00
2019-03-20T15:39:48.022Z,14.10
2019-03-20T15:42:17.414Z,14.00
2019-03-20T15:44:46.872Z,14.30
2019-03-20T15:47:16.234Z,14.20
2019-03-20T15:49:45.673Z,14.30
2019-03-20T15:52:15.083Z,13.70
2019-03-20T15:54:44.502Z,13.50
2019-03-20T15:57:13.887Z,13.50
2019-03-20T15:59:43.248Z,13.60
2019-03-20T16:02:12.620Z,13.80
2019-03-20T16:04:42.094Z,13.50
2019-03-20T16:07:11.574Z,13.40
2019-03-20T16:09:40.923Z,13.60
2019-03-20T16:12:10.452Z,13.50
2019-03-20T16:14:40.165Z,13.40
2019-03-20T16:17:09.633Z,13.50
2019-03-20T16:19:40.560Z,13.20
2019-03-20T16:22:10.098Z,13.10
2019-03-20T16:24:39.587Z,13.10
2019-03-20T16:27:11.647Z,13.10
2019-03-20T16:29:41.081Z,13.20
2019-03-20T16:32:10.778Z,13.10
2019-03-20T16:34:40.377Z,13.10
2019-03-20T16:37:09.790Z,13.10
2019-03-20T16:39:40.433Z,13.00
2019-03-20T16:42:10.096Z,13.00
2019-03-20T16:44:39.515Z,13.00
2019-03-20T16:47:08.863Z,13.00
2019-03-20T16:49:39.792Z,12.90
2019-03-20T16:52:09.226Z,12.80
2019-03-20T16:54:38.581Z,12.80
2019-03-20T16:57:07.957Z,12.80
2019-03-20T16:59:37.378Z,12.80
2019-03-20T17:02:06.800Z,12.80
2019-03-20T17:04:36.178Z,12.60
2019-03-20T17:07:07.063Z,12.60
2019-03-20T17:09:37.978Z,12.60
2019-03-20T17:12:07.508Z,12.70
2019-03-20T17:14:37.120Z,12.70
2019-03-20T17:17:07.100Z,12.70
2019-03-20T17:19:36.543Z,12.60
2019-03-20T17:22:10.864Z,12.50
2019-03-20T17:24:40.348Z,12.50
2019-03-20T17:27:09.699Z,12.40
2019-03-20T17:29:45.525Z,12.40
2019-03-20T17:32:19.292Z,12.40
2019-03-20T17:34:48.743Z,12.30
2019-03-20T17:37:18.193Z,12.30
2019-03-20T17:39:49.174Z,12.30
2019-03-20T17:42:20.212Z,12.30
2019-03-20T17:44:49.643Z,12.30
2019-03-20T17:47:20.835Z,12.20
2019-03-20T17:49:51.861Z,12.10
2019-03-20T17:52:25.377Z,12.10
2019-03-20T17:54:54.911Z,12.00
2019-03-20T17:57:24.271Z,12.00
2019-03-20T17:59:53.629Z,11.90
2019-03-20T18:02:24.190Z,11.90
2019-03-20T18:04:55.692Z,11.90
2019-03-20T18:07:27.870Z,11.90
2019-03-20T18:09:57.577Z,11.80
2019-03-20T18:12:29.701Z,11.80
2019-03-20T18:15:01.815Z,11.70
2019-03-20T18:17:32.659Z,11.70
2019-03-20T18:20:02.089Z,11.70
2019-03-20T18:22:31.513Z,11.70
2019-03-20T18:25:00.965Z,11.70
2019-03-20T18:27:30.564Z,11.70
2019-03-20T18:30:00.006Z,11.60
2019-03-20T18:32:30.541Z,11.60
2019-03-20T18:35:00.830Z,11.60
2019-03-20T18:37:31.658Z,11.60
2019-03-20T18:40:01.062Z,11.60
2019-03-20T18:42:30.656Z,11.60
2019-03-20T18:45:02.320Z,11.60
2019-03-20T18:47:31.639Z,11.50
2019-03-20T18:50:01.557Z,11.40
2019-03-20T18:52:32.083Z,11.50
2019-03-20T18:55:01.772Z,11.50
2019-03-20T18:57:31.237Z,11.50
2019-03-20T19:00:00.652Z,11.50
2019-03-20T19:02:30.099Z,11.50
2019-03-20T19:04:59.530Z,11.40
2019-03-20T19:07:29.886Z,11.40
2019-03-20T19:09:59.329Z,11.30
2019-03-20T19:12:28.790Z,11.30
2019-03-20T19:14:58.156Z,11.30
2019-03-20T19:17:27.634Z,11.30
2019-03-20T19:19:57.024Z,11.20
2019-03-20T19:22:26.431Z,11.20
2019-03-20T19:24:55.821Z,11.20
2019-03-20T19:27:25.273Z,11.20
2019-03-20T19:29:54.631Z,11.20
2019-03-20T19:32:24.031Z,11.20
2019-03-20T19:34:53.500Z,11.20
2019-03-20T19:37:23.191Z,11.20
2019-03-20T19:39:52.658Z,11.20
2019-03-20T19:42:22.026Z,11.20
2019-03-20T19:44:51.407Z,11.10
2019-03-20T19:47:20.832Z,11.10
2019-03-20T19:49:50.213Z,11.10
2019-03-20T19:52:19.873Z,11.10
2019-03-20T19:54:49.424Z,11.10
2019-03-20T19:57:18.794Z,11.10
2019-03-20T19:59:48.256Z,11.00
2019-03-20T20:02:17.631Z,11.00
2019-03-20T20:04:47.068Z,11.00
2019-03-20T20:07:16.491Z,11.00
2019-03-20T20:09:45.888Z,11.00
2019-03-20T20:12:15.376Z,11.00
2019-03-20T20:14:48.527Z,11.00
2019-03-20T20:17:17.975Z,11.00
2019-03-20T20:19:47.458Z,11.00
2019-03-20T20:22:16.882Z,10.90
2019-03-20T20:24:46.266Z,10.90
2019-03-20T20:27:15.627Z,10.80
2019-03-20T20:29:46.742Z,10.80
2019-03-20T20:32:16.187Z,10.80
2019-03-20T20:34:47.170Z,10.80
2019-03-20T20:37:16.599Z,10.80
2019-03-20T20:39:46.017Z,10.80
2019-03-20T20:42:18.411Z,10.70
2019-03-20T20:44:47.791Z,10.70
2019-03-20T20:47:20.318Z,10.70
2019-03-20T20:49:49.712Z,10.70
2019-03-20T20:52:19.865Z,10.70
2019-03-20T20:54:49.440Z,10.70
2019-03-20T20:57:20.480Z,10.70
2019-03-20T20:59:50.503Z,10.70
2019-03-20T21:02:19.969Z,10.70
2019-03-20T21:04:51.978Z,10.70
2019-03-20T21:07:23.017Z,10.70
2019-03-20T21:09:52.516Z,10.70
2019-03-20T21:12:21.918Z,10.70
2019-03-20T21:14:51.324Z,10.70
2019-03-20T21:17:41.601Z,10.60
2019-03-20T21:20:11.086Z,10.60
2019-03-20T21:23:15.446Z,10.60
2019-03-20T21:25:44.812Z,10.60
2019-03-20T21:28:50.224Z,10.60
2019-03-20T21:31:28.804Z,10.60
2019-03-20T21:34:32.935Z,10.50
2019-03-20T21:37:25.051Z,10.50
2019-03-20T21:39:54.468Z,10.50
2019-03-20T21:45:29.388Z,10.50
2019-03-20T21:47:58.759Z,10.50
2019-03-20T21:50:56.756Z,10.40
2019-03-20T21:53:41.122Z,10.40
2019-03-20T21:56:46.754Z,10.40
2019-03-20T21:59:47.589Z,10.40
2019-03-20T22:02:39.403Z,10.30
2019-03-20T22:05:38.911Z,10.20
2019-03-20T22:08:08.274Z,10.10
2019-03-20T22:11:00.000Z,10.10
2019-03-20T22:13:32.451Z,10.10
2019-03-20T22:16:24.541Z,10.10
2019-03-20T22:19:16.868Z,10.00
2019-03-20T22:22:05.701Z,10.00
2019-03-20T22:24:50.072Z,10.00
2019-03-20T22:27:34.371Z,10.00
2019-03-20T22:30:05.832Z,10.00
2019-03-20T22:33:11.296Z,10.00
2019-03-20T22:35:53.063Z,10.00
2019-03-20T22:38:25.833Z,10.00
2019-03-20T22:41:14.746Z,10.00
2019-03-20T22:43:52.971Z,10.00
2019-03-20T22:46:42.109Z,10.00
2019-03-20T22:49:32.079Z,10.00
2019-03-20T22:52:16.289Z,10.00
2019-03-20T22:55:03.671Z,10.00
2019-03-20T22:57:54.233Z,10.00
2019-03-20T23:00:24.089Z,10.00
2019-03-20T23:02:55.947Z,10.00
2019-03-20T23:05:25.254Z,10.00
2019-03-20T23:07:55.688Z,10.00
2019-03-20T23:10:25.111Z,10.00
2019-03-20T23:12:56.090Z,10.00
2019-03-20T23:15:25.472Z,10.10
2019-03-20T23:17:54.956Z,10.10
2019-03-20T23:20:27.656Z,10.10
2019-03-20T23:22:57.009Z,10.10
2019-03-20T23:25:26.382Z,10.10
2019-03-20T23:27:55.825Z,10.10
2019-03-20T23:30:27.815Z,10.10
2019-03-20T23:32:57.314Z,10.10
2019-03-20T23:35:26.770Z,10.10
2019-03-20T23:37:56.299Z,10.10
2019-03-20T23:40:25.730Z,10.10
2019-03-20T23:42:58.250Z,10.10
2019-03-20T23:45:27.753Z,10.20
2019-03-20T23:48:05.832Z,10.20
2019-03-20T23:50:35.325Z,10.10
2019-03-20T23:53:05.679Z,10.20
2019-03-20T23:55:35.203Z,10.10
2019-03-20T23:58:05.516Z,10.20
